METAR Data
IDs: Format: Raw Decoded Include TAF

Data at: 0304 UTC 20 Jan 2022

KDRO 200253Z AUTO 05006KT 10SM CLR M02/M06 A3013 RMK AO2 SLP252 T10221061 51013
KDRO 200153Z AUTO 21006KT 10SM CLR 01/M06 A3012 RMK AO2 SLP239 T00061056
KDRO 200053Z AUTO 22003KT 10SM CLR 02/M06 A3010 RMK AO2 SLP225 T00171061
KDRO 192353Z AUTO 21004KT 10SM CLR 03/M06 A3009 RMK AO2 SLP217 T00331056 10044 20011 52003
KDRO 192253Z AUTO 20004KT 10SM CLR 03/M06 A3008 RMK AO2 SLP213 T00331056
KDRO 192153Z AUTO 21009KT 10SM CLR 04/M05 A3008 RMK AO2 SLP210 T00391050
KDRO 192053Z AUTO 25005KT 10SM CLR 04/M05 A3007 RMK AO2 SLP206 T00391050 56007
KDRO 191953Z AUTO VRB03KT 10SM CLR 04/M06 A3008 RMK AO2 SLP204 T00391056
KDRO 191853Z AUTO 00000KT 10SM CLR 03/M06 A3009 RMK AO2 SLP207 T00331056
KDRO 191753Z AUTO 04003KT 10SM CLR 01/M06 A3010 RMK AO2 SLP212 T00111056 10011 21089 50006
KDRO 191653Z AUTO 04003KT 10SM CLR M02/M06 A3010 RMK AO2 SLP223 T10221061
KDRO 191553Z AUTO 00000KT 10SM CLR M04/M07 A3009 RMK AO2 SLP223 T10441072
KDRO 191453Z AUTO 07004KT 10SM CLR M08/M09 A3008 RMK AO2 SLP218 T10781094 51015
KDRO 191353Z AUTO 05005KT 10SM CLR M08/M09 A3006 RMK AO2 SLP212 T10781094
KDRO 191253Z AUTO 00000KT 10SM CLR M07/M09 A3005 RMK AO2 SLP204 T10671089
KDRO 191153Z AUTO 04003KT 10SM CLR M07/M08 A3003 RMK AO2 SLP190 T10671083 11017 21078 51006
KDRO 191053Z AUTO 35004KT 10SM CLR M06/M08 A3003 RMK AO2 SLP185 T10561078
KDRO 190953Z AUTO 00000KT 10SM CLR M07/M08 A3001 RMK AO2 SLP181 T10671083
KDRO 190853Z AUTO 03003KT 10SM CLR M05/M08 A3001 RMK AO2 SLP178 T10501078 53002
KDRO 190753Z AUTO 01003KT 10SM CLR M04/M07 A3000 RMK AO2 SLP175 T10391067
KDRO 190653Z AUTO 14004KT 10SM CLR M04/M07 A3000 RMK AO2 SLP180 T10391067 400721106
KDRO 190553Z AUTO 01005KT 10SM CLR M02/M06 A3000 RMK AO2 SLP180 T10171061 10050 21022 53005
KDRO 190453Z AUTO 01003KT 10SM CLR M01/M06 A2999 RMK AO2 SLP185 T10111061
KDRO 190353Z AUTO 01006KT 10SM CLR M01/M06 A2999 RMK AO2 SLP192 T10061056
KDRO 190253Z AUTO 26012KT 10SM OVC110 03/M06 A2998 RMK AO2 SLP186 T00331056 53005
KDRO 190153Z AUTO 24009KT 10SM BKN100 03/M06 A2997 RMK AO2 SLP181 T00281061
KDRO 190053Z AUTO 23006KT 10SM BKN100 03/M06 A2996 RMK AO2 SLP179 T00281061
KDRO 182353Z AUTO 27009KT 10SM CLR 05/M08 A2996 RMK AO2 SLP170 T00501078 10072 20006 55002
KDRO 182253Z AUTO 25012KT 10SM FEW120 06/M07 A2996 RMK AO2 SLP171 T00561067
KDRO 182153Z AUTO 25011G18KT 10SM CLR 07/M07 A2996 RMK AO2 SLP161 T00671067
KDRO 182053Z AUTO 06006KT 10SM CLR 05/M06 A2997 RMK AO2 SLP173 T00501056 56024
KDRO 181953Z AUTO VRB05KT 10SM CLR 04/M06 A3000 RMK AO2 SLP183 T00391056
KDRO 181853Z AUTO 08004KT 10SM CLR 02/M06 A3003 RMK AO2 SLP199 T00221061
KDRO 181753Z AUTO 04003KT 10SM CLR 00/M06 A3006 RMK AO2 SLP207 T00001061 10000 21106 50000
KDRO 181653Z AUTO 06003KT 10SM CLR M03/M08 A3007 RMK AO2 SLP221 T10331083
KDRO 181553Z AUTO 00000KT 10SM CLR M06/M09 A3007 RMK AO2 SLP226 T10611094